Time;durP1;ratioP1;P1;durP2;ratioP2;P2;SDS_P1;SDS_P2;PMS_P1;PMS_P2;Temp;Humidity;BMP_temperature;BMP_pressure;BME280_temperature;BME280_humidity;BME280_pressure;Samples;Min_cycle;Max_cycle;Signal;HPM_P1;HPM_P2
2022/09/28 00:01:09;;;;;;;5.20;4.30;;;9.10;99.90;;;;;;5094470;28;20198;-76
2022/09/28 00:03:35;;;;;;;6.53;4.07;;;9.20;99.90;;;;;;5093275;28;20258;-75
2022/09/28 00:06:06;;;;;;;5.77;3.83;;;9.20;99.90;;;;;;5093130;28;20202;-75
2022/09/28 00:08:35;;;;;;;6.23;4.70;;;9.10;99.90;;;;;;5110170;28;20225;-76
2022/09/28 00:11:03;;;;;;;5.77;3.97;;;9.20;99.90;;;;;;5094262;28;20186;-75
2022/09/28 00:13:30;;;;;;;5.53;3.90;;;9.20;99.90;;;;;;5094253;28;20558;-75
2022/09/28 00:15:59;;;;;;;4.93;3.53;;;9.20;99.90;;;;;;5094539;28;20180;-76
2022/09/28 00:18:25;;;;;;;4.30;3.67;;;9.10;99.90;;;;;;5094212;28;20269;-75
2022/09/28 00:21:03;;;;;;;4.13;3.70;;;9.10;99.90;;;;;;5094389;28;20213;-75
2022/09/28 00:23:28;;;;;;;5.97;4.00;;;9.10;99.90;;;;;;5092806;28;20174;-75
2022/09/28 00:25:54;;;;;;;8.20;4.13;;;9.10;99.90;;;;;;5093968;28;20686;-75
2022/09/28 00:28:19;;;;;;;5.17;4.00;;;9.10;99.90;;;;;;5092848;28;20181;-76
2022/09/28 00:30:45;;;;;;;5.20;4.00;;;9.10;99.90;;;;;;5093922;28;20243;-75
2022/09/28 00:33:11;;;;;;;4.10;3.57;;;9.10;99.90;;;;;;5093907;28;20162;-76
2022/09/28 00:35:36;;;;;;;4.70;3.50;;;9.10;99.90;;;;;;5093884;28;20198;-76
2022/09/28 00:38:02;;;;;;;3.53;3.23;;;9.00;99.90;;;;;;5093846;28;20517;-76
2022/09/28 00:40:28;;;;;;;6.97;3.27;;;8.90;99.90;;;;;;5093548;28;20213;-74
2022/09/28 00:42:54;;;;;;;4.70;3.70;;;8.90;99.90;;;;;;5093968;28;20166;-75
2022/09/28 00:45:21;;;;;;;6.33;3.47;;;8.90;99.90;;;;;;5093675;28;20252;-76
2022/09/28 00:47:53;;;;;;;4.27;3.77;;;8.90;99.90;;;;;;5092277;28;20612;-75
2022/09/28 00:50:29;;;;;;;4.20;3.20;;;9.00;99.90;;;;;;5093567;28;20655;-75
2022/09/28 00:53:05;;;;;;;5.83;3.70;;;8.90;99.90;;;;;;5093483;28;20166;-75
2022/09/28 00:55:43;;;;;;;4.23;3.30;;;8.90;99.90;;;;;;5093009;28;20266;-75
2022/09/28 00:58:13;;;;;;;4.90;3.70;;;8.90;99.90;;;;;;5093537;28;20151;-75
2022/09/28 01:00:39;;;;;;;3.90;3.57;;;8.80;99.90;;;;;;5093292;28;20183;-75
2022/09/28 01:03:06;;;;;;;5.27;3.60;;;8.80;99.90;;;;;;5092090;28;20194;-75
2022/09/28 01:05:33;;;;;;;4.13;3.70;;;8.80;99.90;;;;;;5091964;28;20174;-75
2022/09/28 01:08:01;;;;;;;6.23;3.70;;;8.80;99.90;;;;;;5092055;28;20171;-75
2022/09/28 01:10:29;;;;;;;6.77;3.57;;;8.80;99.90;;;;;;5093550;28;20190;-75
2022/09/28 01:12:55;;;;;;;6.40;4.37;;;8.80;99.90;;;;;;5093208;28;20248;-76
2022/09/28 01:15:22;;;;;;;10.47;4.23;;;8.80;99.90;;;;;;5091844;28;20262;-75
2022/09/28 01:18:03;;;;;;;6.43;4.30;;;8.80;99.90;;;;;;5091910;28;20169;-75
2022/09/28 01:20:39;;;;;;;9.00;4.13;;;8.80;99.90;;;;;;5093285;28;20660;-75
2022/09/28 01:23:26;;;;;;;5.00;4.37;;;8.70;99.90;;;;;;5093298;28;20591;-76
2022/09/28 01:26:25;;;;;;;6.07;4.47;;;8.70;99.90;;;;;;5091632;28;20220;-75
2022/09/28 01:29:00;;;;;;;6.23;5.03;;;8.70;99.90;;;;;;5091752;28;20162;-76
2022/09/28 01:31:31;;;;;;;7.30;4.57;;;8.70;99.90;;;;;;5091676;28;20670;-75
2022/09/28 01:34:02;;;;;;;5.93;4.63;;;8.70;99.90;;;;;;5091676;28;20659;-75
2022/09/28 01:37:00;;;;;;;6.03;4.40;;;8.70;99.90;;;;;;5093245;28;20245;-76
2022/09/28 01:39:35;;;;;;;6.73;4.73;;;8.70;99.90;;;;;;5088387;28;20225;-76
2022/09/28 01:42:09;;;;;;;5.67;4.50;;;8.70;99.90;;;;;;5091910;28;20181;-75
2022/09/28 01:44:39;;;;;;;5.93;5.33;;;8.70;99.90;;;;;;5092820;28;20623;-76
2022/09/28 01:47:09;;;;;;;6.00;5.10;;;8.80;99.90;;;;;;5091490;28;20284;-76
2022/09/28 01:49:54;;;;;;;7.77;4.83;;;8.80;99.90;;;;;;5091451;28;20609;-75
2022/09/28 01:52:23;;;;;;;8.07;5.77;;;8.80;99.90;;;;;;5091440;28;20205;-76
2022/09/28 01:54:55;;;;;;;7.63;5.37;;;8.80;99.90;;;;;;5092717;28;20256;-74
2022/09/28 01:57:42;;;;;;;7.70;5.43;;;8.90;99.90;;;;;;5091510;28;20182;-76
2022/09/28 02:00:11;;;;;;;9.27;5.80;;;8.80;99.90;;;;;;5091425;28;20197;-75
2022/09/28 02:02:49;;;;;;;11.10;6.43;;;8.80;99.90;;;;;;5092695;28;20170;-75
2022/09/28 02:05:19;;;;;;;12.13;7.03;;;8.80;99.90;;;;;;5093006;28;20150;-75
2022/09/28 02:07:58;;;;;;;8.47;7.00;;;8.70;99.90;;;;;;5093825;28;20190;-75
2022/09/28 02:10:31;;;;;;;9.50;7.23;;;8.70;99.90;;;;;;5096668;28;20652;-76
2022/09/28 02:13:23;;;;;;;11.13;7.80;;;8.60;99.90;;;;;;5096967;28;20223;-75
2022/09/28 02:16:20;;;;;;;9.63;7.47;;;8.60;99.90;;;;;;5096828;28;20159;-76
2022/09/28 02:18:46;;;;;;;10.03;8.33;;;8.60;99.90;;;;;;5096765;28;20199;-75
2022/09/28 02:21:16;;;;;;;11.70;8.10;;;8.60;99.90;;;;;;5096433;28;20190;-76
2022/09/28 02:23:59;;;;;;;9.47;8.17;;;8.70;99.90;;;;;;5096444;28;20178;-75
2022/09/28 02:26:30;;;;;;;11.13;8.33;;;8.70;99.90;;;;;;5095106;28;20255;-76
2022/09/28 02:28:56;;;;;;;10.87;8.10;;;8.70;99.90;;;;;;5095218;28;20220;-75
2022/09/28 02:31:22;;;;;;;10.70;8.57;;;8.70;99.90;;;;;;5095972;28;20280;-77
2022/09/28 02:33:50;;;;;;;9.90;8.03;;;8.70;99.90;;;;;;5095725;28;20170;-75
2022/09/28 02:36:15;;;;;;;13.87;8.13;;;8.70;99.90;;;;;;5096163;28;20273;-76
2022/09/28 02:38:41;;;;;;;11.27;8.43;;;8.80;99.90;;;;;;5096159;28;20205;-76
2022/09/28 02:41:25;;;;;;;10.00;8.43;;;8.70;99.90;;;;;;5095936;28;20205;-75
2022/09/28 02:44:28;;;;;;;9.80;7.53;;;8.70;99.90;;;;;;5093811;28;20592;-75
2022/09/28 02:47:21;;;;;;;10.13;7.97;;;8.70;99.90;;;;;;5096143;28;20208;-75
2022/09/28 02:50:17;;;;;;;9.07;7.43;;;8.60;99.90;;;;;;5095905;28;20551;-75
2022/09/28 02:52:42;;;;;;;10.80;7.97;;;8.60;99.90;;;;;;5094525;28;20545;-75
2022/09/28 02:55:52;;;;;;;13.13;8.10;;;8.70;99.90;;;;;;5095947;28;20249;-76
2022/09/28 02:58:29;;;;;;;10.83;8.67;;;8.70;99.90;;;;;;5062878;28;20186;-76
2022/09/28 03:01:23;;;;;;;9.90;8.00;;;8.70;99.90;;;;;;5092498;28;20202;-75
2022/09/28 03:03:52;;;;;;;9.67;8.10;;;8.70;99.90;;;;;;5096048;28;20527;-76
2022/09/28 03:06:26;;;;;;;9.87;8.03;;;8.70;99.90;;;;;;5095551;28;20194;-75
2022/09/28 03:09:03;;;;;;;10.80;8.07;;;8.70;99.90;;;;;;5111329;28;20163;-75
2022/09/28 03:11:37;;;;;;;12.40;8.13;;;8.70;99.90;;;;;;5095876;28;20670;-76
2022/09/28 03:14:04;;;;;;;11.03;7.77;;;8.60;99.90;;;;;;5095534;28;20204;-75
2022/09/28 03:16:30;;;;;;;11.00;8.00;;;8.60;99.90;;;;;;5094018;28;20219;-75
2022/09/28 03:18:57;;;;;;;10.73;8.47;;;8.60;99.90;;;;;;5094928;28;20177;-74
2022/09/28 03:21:22;;;;;;;13.63;7.90;;;8.60;99.90;;;;;;5095649;28;20170;-76
2022/09/28 03:23:48;;;;;;;10.90;8.07;;;8.70;99.90;;;;;;5095318;28;20257;-75
2022/09/28 03:26:15;;;;;;;16.67;9.37;;;8.70;99.90;;;;;;5093898;28;20201;-76
2022/09/28 03:28:41;;;;;;;9.57;7.80;;;8.60;99.90;;;;;;5095265;28;20645;-75
2022/09/28 03:31:07;;;;;;;10.70;8.83;;;8.70;99.90;;;;;;5095166;28;20198;-76
2022/09/28 03:33:33;;;;;;;12.53;8.57;;;8.70;99.90;;;;;;5092009;28;20308;-77
2022/09/28 03:35:58;;;;;;;11.63;8.57;;;8.60;99.90;;;;;;5092374;28;20177;-76
2022/09/28 03:38:24;;;;;;;12.17;9.00;;;8.60;99.90;;;;;;5095170;28;20178;-76
2022/09/28 03:40:58;;;;;;;12.03;9.37;;;8.60;99.90;;;;;;5094955;28;20205;-75
2022/09/28 03:43:24;;;;;;;11.87;9.17;;;8.60;99.90;;;;;;5094939;28;20166;-76
2022/09/28 03:45:54;;;;;;;13.67;10.23;;;8.60;99.90;;;;;;5093452;28;20205;-75
2022/09/28 03:48:25;;;;;;;15.10;10.57;;;8.60;99.90;;;;;;5109630;28;20644;-76
2022/09/28 03:50:54;;;;;;;13.53;10.63;;;8.70;99.90;;;;;;5094740;28;20185;-76
2022/09/28 03:53:20;;;;;;;12.67;10.80;;;8.60;99.90;;;;;;5110360;28;20170;-76
2022/09/28 03:55:46;;;;;;;16.53;11.70;;;8.70;99.90;;;;;;5110397;28;20261;-76
2022/09/28 03:58:11;;;;;;;14.63;11.33;;;8.60;99.90;;;;;;5094696;28;20209;-76
2022/09/28 04:00:37;;;;;;;12.63;10.80;;;8.60;99.90;;;;;;5110116;28;20182;-76
2022/09/28 04:03:03;;;;;;;12.60;10.83;;;8.60;99.90;;;;;;5094465;28;20624;-76
2022/09/28 04:05:29;;;;;;;15.13;12.03;;;8.70;99.90;;;;;;5109155;28;20194;-76
2022/09/28 04:07:57;;;;;;;15.57;12.13;;;8.60;99.90;;;;;;5094426;28;20589;-76
2022/09/28 04:10:24;;;;;;;15.90;10.90;;;8.60;99.90;;;;;;5094301;28;20201;-76
2022/09/28 04:12:53;;;;;;;16.57;10.80;;;8.60;99.90;;;;;;5094262;28;20174;-76
2022/09/28 04:15:19;;;;;;;15.93;12.03;;;8.60;99.90;;;;;;5094772;28;20173;-76
2022/09/28 04:17:44;;;;;;;16.07;12.10;;;8.60;99.90;;;;;;5092855;28;20170;-75
2022/09/28 04:20:10;;;;;;;15.57;12.40;;;8.60;99.90;;;;;;5092779;28;20198;-76
2022/09/28 04:22:36;;;;;;;16.97;13.57;;;8.60;99.90;;;;;;5091618;28;20879;-76
2022/09/28 04:25:02;;;;;;;19.07;13.17;;;8.70;99.90;;;;;;5094613;28;20318;-76
2022/09/28 04:30:12;;;;;;;16.13;13.20;;;8.70;99.90;;;;;;5093225;28;20559;-76
2022/09/28 04:32:38;;;;;;;17.50;14.20;;;8.70;99.90;;;;;;5092718;28;20170;-76
2022/09/28 04:35:04;;;;;;;21.87;13.63;;;8.70;99.90;;;;;;5092622;28;20181;-76
2022/09/28 04:37:30;;;;;;;18.50;14.70;;;8.70;99.90;;;;;;5093873;28;20725;-76
2022/09/28 04:39:55;;;;;;;18.80;15.00;;;8.70;99.90;;;;;;5092565;28;20214;-76
2022/09/28 04:42:21;;;;;;;18.00;14.87;;;8.60;99.90;;;;;;5089662;22;20288;-76
2022/09/28 04:44:46;;;;;;;20.23;15.07;;;8.70;99.90;;;;;;5052487;28;20171;-76
2022/09/28 04:47:12;;;;;;;15.67;13.50;;;8.70;99.90;;;;;;5053773;28;20202;-77
2022/09/28 04:49:37;;;;;;;21.33;15.57;;;8.70;99.90;;;;;;5052753;28;20172;-77
2022/09/28 04:52:04;;;;;;;23.17;15.07;;;8.70;99.90;;;;;;5053750;28;20192;-77
2022/09/28 04:54:30;;;;;;;18.97;14.83;;;8.70;99.90;;;;;;5053886;28;20175;-77
2022/09/28 04:56:56;;;;;;;17.37;13.70;;;8.70;99.90;;;;;;5052670;28;20183;-77
2022/09/28 04:59:22;;;;;;;19.67;14.37;;;8.80;99.90;;;;;;5053698;28;20176;-77
2022/09/28 05:01:48;;;;;;;18.20;14.60;;;8.80;99.90;;;;;;5053166;28;20273;-77
2022/09/28 05:04:14;;;;;;;26.33;14.53;;;8.80;99.90;;;;;;5053658;28;20163;-77
2022/09/28 05:06:39;;;;;;;17.23;14.30;;;8.70;99.90;;;;;;5052011;28;20203;-77
2022/09/28 05:09:05;;;;;;;18.37;13.60;;;8.70;99.90;;;;;;5053225;28;20278;-76
2022/09/28 05:11:31;;;;;;;19.03;13.03;;;8.70;99.90;;;;;;5051746;28;20313;-76
2022/09/28 05:13:56;;;;;;;18.20;13.93;;;8.70;99.90;;;;;;5051755;28;20646;-77
2022/09/28 05:16:24;;;;;;;19.40;13.30;;;8.70;99.90;;;;;;5053808;28;20689;-77
2022/09/28 05:18:54;;;;;;;18.40;13.20;;;8.70;99.90;;;;;;5052009;28;20546;-77
2022/09/28 05:21:19;;;;;;;19.03;13.43;;;8.70;99.90;;;;;;5053530;28;20188;-76
2022/09/28 05:23:46;;;;;;;17.20;13.77;;;8.70;99.90;;;;;;5053230;28;20245;-77
2022/09/28 05:26:11;;;;;;;16.87;13.27;;;8.70;99.90;;;;;;5051916;28;20199;-77
2022/09/28 05:28:37;;;;;;;16.20;12.17;;;8.70;99.90;;;;;;5053260;28;20242;-77
2022/09/28 05:31:04;;;;;;;20.03;14.10;;;8.70;99.90;;;;;;5069725;28;20278;-76
2022/09/28 05:33:31;;;;;;;15.93;11.97;;;8.80;99.90;;;;;;5057192;28;20560;-78
2022/09/28 05:35:57;;;;;;;17.07;13.33;;;8.80;99.90;;;;;;5053635;28;20189;-77
2022/09/28 05:38:23;;;;;;;19.00;12.97;;;8.80;99.90;;;;;;5052301;28;20171;-77
2022/09/28 05:40:49;;;;;;;18.43;12.97;;;8.80;99.90;;;;;;5052045;28;20168;-78
2022/09/28 05:43:15;;;;;;;17.67;13.80;;;8.80;99.90;;;;;;5053662;28;20571;-77
2022/09/28 05:45:40;;;;;;;21.67;14.70;;;8.80;99.90;;;;;;5052016;28;20585;-77
2022/09/28 05:48:06;;;;;;;17.87;13.23;;;8.80;99.90;;;;;;5064250;28;20212;-77
2022/09/28 05:50:31;;;;;;;20.10;13.17;;;8.80;99.90;;;;;;5074515;28;20255;-78
2022/09/28 05:53:06;;;;;;;16.10;12.77;;;8.70;99.90;;;;;;5074887;28;20193;-77
2022/09/28 05:55:32;;;;;;;21.00;13.03;;;8.80;99.90;;;;;;5072329;28;20545;-77
2022/09/28 05:58:04;;;;;;;22.93;13.43;;;8.80;99.90;;;;;;5070882;28;20258;-78
2022/09/28 06:00:31;;;;;;;16.83;12.43;;;8.80;99.90;;;;;;5072189;28;20273;-77
2022/09/28 06:02:59;;;;;;;15.63;11.83;;;8.80;99.90;;;;;;5073134;28;20203;-77
2022/09/28 06:05:25;;;;;;;14.30;10.93;;;8.80;99.90;;;;;;5071858;28;20205;-77
2022/09/28 06:07:51;;;;;;;15.67;11.40;;;8.80;99.90;;;;;;5071890;28;20209;-77
2022/09/28 06:10:17;;;;;;;15.97;12.07;;;8.80;99.90;;;;;;5073326;28;20200;-77
2022/09/28 06:12:43;;;;;;;14.77;11.87;;;8.80;99.90;;;;;;5070353;28;20194;-77
2022/09/28 06:15:09;;;;;;;15.43;11.90;;;8.80;99.90;;;;;;5073158;28;20163;-77
2022/09/28 06:17:34;;;;;;;18.80;11.17;;;8.90;99.90;;;;;;5073367;28;20228;-77
2022/09/28 06:20:00;;;;;;;13.57;10.57;;;8.80;99.90;;;;;;5073280;28;20176;-77
2022/09/28 06:22:26;;;;;;;17.63;9.97;;;8.90;99.90;;;;;;5071903;28;20295;-77
2022/09/28 06:24:51;;;;;;;12.07;10.00;;;8.80;99.90;;;;;;5073980;28;20194;-77
2022/09/28 06:27:17;;;;;;;12.33;10.53;;;8.80;99.90;;;;;;5072918;28;20199;-77
2022/09/28 06:29:42;;;;;;;13.27;9.50;;;8.80;99.90;;;;;;5058445;28;20179;-76
2022/09/28 06:32:08;;;;;;;14.60;9.60;;;8.80;99.90;;;;;;5052845;28;20234;-77
2022/09/28 06:34:33;;;;;;;12.63;8.97;;;8.90;99.90;;;;;;5052896;28;20609;-76
2022/09/28 06:36:59;;;;;;;13.20;9.23;;;8.90;99.90;;;;;;5053065;28;20233;-77
2022/09/28 06:39:25;;;;;;;13.47;8.97;;;8.90;99.90;;;;;;5051509;28;20520;-77
2022/09/28 06:41:51;;;;;;;12.57;9.17;;;8.90;99.90;;;;;;5052683;28;20207;-78
2022/09/28 06:44:16;;;;;;;14.93;9.37;;;8.90;99.90;;;;;;5052133;28;20190;-77
2022/09/28 06:46:42;;;;;;;11.87;8.43;;;8.80;99.90;;;;;;5036526;28;20299;-77
2022/09/28 06:49:08;;;;;;;10.83;8.37;;;8.80;99.90;;;;;;5031454;28;20192;-79
2022/09/28 06:51:35;;;;;;;16.83;8.30;;;8.90;99.90;;;;;;5032696;28;20682;-78
2022/09/28 06:54:01;;;;;;;15.17;8.43;;;8.90;99.90;;;;;;5033942;28;20196;-77
2022/09/28 06:56:26;;;;;;;10.50;7.97;;;8.90;99.90;;;;;;5051741;28;20642;-78
2022/09/28 06:58:52;;;;;;;15.63;8.70;;;8.90;99.90;;;;;;5034935;28;20188;-77
2022/09/28 07:01:18;;;;;;;15.90;8.60;;;8.90;99.90;;;;;;5067743;28;20208;-77
2022/09/28 07:03:44;;;;;;;10.43;8.47;;;8.90;99.90;;;;;;5056014;28;20179;-77
2022/09/28 07:06:11;;;;;;;9.63;7.73;;;8.90;99.90;;;;;;5056140;28;20221;-77
2022/09/28 07:08:37;;;;;;;8.20;7.33;;;9.00;99.90;;;;;;5055705;28;20190;-77
2022/09/28 07:11:06;;;;;;;11.07;8.20;;;9.00;99.90;;;;;;5054642;28;20755;-77
2022/09/28 07:13:32;;;;;;;9.03;7.07;;;8.90;99.90;;;;;;5054573;28;20808;-77
2022/09/28 07:16:00;;;;;;;12.43;7.33;;;9.00;99.90;;;;;;5056105;28;20266;-77
2022/09/28 07:18:27;;;;;;;9.63;7.70;;;9.00;99.90;;;;;;5070584;28;20175;-77
2022/09/28 07:20:55;;;;;;;9.33;7.57;;;9.00;99.90;;;;;;5075625;28;20640;-78
2022/09/28 07:23:21;;;;;;;12.03;7.77;;;9.00;99.90;;;;;;5074727;28;20230;-77
2022/09/28 07:25:47;;;;;;;15.13;9.27;;;8.90;99.90;;;;;;5075776;28;20301;-77
2022/09/28 07:28:13;;;;;;;13.13;8.97;;;8.90;99.90;;;;;;5075462;28;20190;-78
2022/09/28 07:30:39;;;;;;;9.00;8.03;;;8.90;99.90;;;;;;5074231;28;20637;-78
2022/09/28 07:33:06;;;;;;;15.00;8.97;;;8.90;99.90;;;;;;5074395;28;20171;-77
2022/09/28 07:35:33;;;;;;;10.70;8.90;;;9.00;99.90;;;;;;5069285;28;20592;-78
2022/09/28 07:38:04;;;;;;;12.07;9.80;;;9.00;99.90;;;;;;5075404;28;20203;-78
2022/09/28 07:43:19;;;;;;;14.13;9.10;;;9.10;99.90;;;;;;5075781;28;20193;-77
2022/09/28 07:45:46;;;;;;;14.30;9.77;;;9.10;99.90;;;;;;5073991;28;20182;-78
2022/09/28 07:48:14;;;;;;;13.30;8.67;;;9.20;99.90;;;;;;5073873;28;20171;-77
2022/09/28 07:50:40;;;;;;;11.37;9.27;;;9.30;99.90;;;;;;5073700;28;20640;-79
2022/09/28 07:53:07;;;;;;;11.87;7.87;;;9.30;99.90;;;;;;5075331;28;20524;-79
2022/09/28 07:55:32;;;;;;;9.70;7.60;;;9.40;99.90;;;;;;5073651;28;20179;-77
2022/09/28 07:57:59;;;;;;;14.47;8.40;;;9.40;99.90;;;;;;5073604;28;20190;-77
2022/09/28 08:00:30;;;;;;;9.93;7.40;;;9.50;99.90;;;;;;5074984;28;20714;-77
2022/09/28 08:02:58;;;;;;;12.30;7.73;;;9.50;99.90;;;;;;5073676;28;20287;-77
2022/09/28 08:05:25;;;;;;;11.53;7.87;;;9.60;99.90;;;;;;5047615;28;20704;-78
2022/09/28 08:07:51;;;;;;;12.30;6.87;;;9.60;99.90;;;;;;5035002;28;20226;-78
2022/09/28 08:10:18;;;;;;;12.37;6.57;;;9.60;99.90;;;;;;5034801;28;20642;-77
2022/09/28 08:12:46;;;;;;;11.63;6.77;;;9.50;99.90;;;;;;5034847;28;20246;-77
2022/09/28 08:15:11;;;;;;;9.83;7.00;;;9.60;99.90;;;;;;5060406;28;20588;-79
2022/09/28 08:17:37;;;;;;;9.03;6.53;;;9.60;99.90;;;;;;5053448;28;20210;-78
2022/09/28 08:22:47;;;;;;;10.60;6.17;;;9.70;99.90;;;;;;5054929;28;20257;-77
2022/09/28 08:25:13;;;;;;;10.17;6.13;;;9.80;99.90;;;;;;5043958;28;20592;-77
2022/09/28 08:27:38;;;;;;;9.03;6.23;;;9.80;99.90;;;;;;5062895;28;20730;-77
2022/09/28 08:30:04;;;;;;;9.23;6.07;;;9.90;99.90;;;;;;5074535;28;20171;-77
2022/09/28 08:32:31;;;;;;;8.97;6.03;;;9.90;99.90;;;;;;5074147;28;20252;-77
2022/09/28 08:34:57;;;;;;;7.20;5.90;;;9.90;99.90;;;;;;5065385;28;20214;-77
2022/09/28 08:37:22;;;;;;;9.47;6.10;;;9.90;99.90;;;;;;5042546;28;20212;-79
2022/09/28 08:39:48;;;;;;;7.73;5.30;;;9.90;99.90;;;;;;5034369;28;20263;-77
2022/09/28 08:42:32;;;;;;;5.50;4.70;;;9.90;99.90;;;;;;5034047;28;20219;-77
2022/09/28 08:45:07;;;;;;;6.50;4.87;;;10.00;99.90;;;;;;5040430;28;20306;-79
2022/09/28 08:50:31;;;;;;;6.03;5.37;;;9.90;99.90;;;;;;5054060;28;20214;-77
2022/09/28 08:53:04;;;;;;;6.00;5.23;;;9.90;99.90;;;;;;5054002;28;20191;-77
2022/09/28 08:55:33;;;;;;;7.13;5.30;;;10.00;99.90;;;;;;5065294;28;20187;-77
2022/09/28 08:58:12;;;;;;;11.40;6.17;;;10.10;99.90;;;;;;5072853;28;20262;-77
2022/09/28 09:00:57;;;;;;;10.77;5.93;;;10.10;99.90;;;;;;5074059;28;20165;-79
2022/09/28 09:03:29;;;;;;;9.27;6.00;;;10.00;99.90;;;;;;5074019;28;20224;-78
2022/09/28 09:06:16;;;;;;;8.67;5.57;;;10.10;99.90;;;;;;5056036;28;20179;-77
2022/09/28 09:08:48;;;;;;;7.17;5.40;;;10.10;99.90;;;;;;5054020;28;20174;-77
2022/09/28 09:11:17;;;;;;;8.67;6.20;;;10.10;99.90;;;;;;5052677;28;20266;-79
2022/09/28 09:14:03;;;;;;;7.37;5.70;;;10.20;99.90;;;;;;5053097;28;20266;-78
2022/09/28 09:16:37;;;;;;;7.70;5.47;;;10.20;99.90;;;;;;5072595;28;20706;-77
2022/09/28 09:19:29;;;;;;;11.17;9.30;;;10.20;99.90;;;;;;5072571;28;20706;-77
2022/09/28 09:22:08;;;;;;;10.17;8.40;;;10.20;99.90;;;;;;5073786;28;20195;-79
2022/09/28 09:24:50;;;;;;;12.13;7.77;;;10.20;99.90;;;;;;5071801;28;20234;-78
2022/09/28 09:27:41;;;;;;;8.37;6.53;;;10.20;99.90;;;;;;5073344;28;20199;-77
2022/09/28 09:30:13;;;;;;;7.00;6.30;;;10.30;99.90;;;;;;5073346;28;20151;-77
2022/09/28 09:33:22;;;;;;;9.93;6.80;;;10.30;99.90;;;;;;5065295;28;20667;-77
2022/09/28 09:36:33;;;;;;;8.47;6.07;;;10.40;99.90;;;;;;5053651;28;20152;-77
2022/09/28 09:39:14;;;;;;;10.53;6.53;;;10.50;99.90;;;;;;5053151;28;20668;-78
2022/09/28 09:42:05;;;;;;;7.67;6.30;;;10.50;99.90;;;;;;5051703;28;20218;-77
2022/09/28 09:44:56;;;;;;;6.83;6.13;;;10.50;99.90;;;;;;5053408;28;20164;-76
2022/09/28 09:47:57;;;;;;;9.30;5.30;;;10.50;99.90;;;;;;5053073;28;20221;-78
2022/09/28 09:50:57;;;;;;;8.63;5.80;;;10.50;99.90;;;;;;5051895;28;20183;-78
2022/09/28 09:53:34;;;;;;;5.37;4.87;;;10.50;99.90;;;;;;5061087;28;20214;-78
2022/09/28 09:56:13;;;;;;;6.43;4.87;;;10.60;99.90;;;;;;5073442;28;20181;-77
2022/09/28 09:58:46;;;;;;;12.10;4.70;;;10.70;99.90;;;;;;5073086;28;20187;-77
2022/09/28 10:01:16;;;;;;;9.73;5.70;;;10.70;99.90;;;;;;5073016;28;20198;-77
2022/09/28 10:03:45;;;;;;;5.00;4.47;;;10.70;99.90;;;;;;5071273;28;20251;-77
2022/09/28 10:06:24;;;;;;;7.03;4.80;;;10.70;99.90;;;;;;5070098;28;20198;-79
2022/09/28 10:09:00;;;;;;;5.17;4.30;;;10.70;99.90;;;;;;5032775;28;20223;-77
2022/09/28 10:11:30;;;;;;;6.60;5.43;;;10.70;99.90;;;;;;5033102;28;20215;-78
2022/09/28 10:13:56;;;;;;;12.70;5.70;;;10.70;99.90;;;;;;5050905;28;20180;-77
2022/09/28 10:16:23;;;;;;;6.73;5.27;;;10.70;99.90;;;;;;5051730;28;20179;-78
2022/09/28 10:18:48;;;;;;;5.57;4.70;;;10.70;99.90;;;;;;5051713;28;20214;-77
2022/09/28 10:21:17;;;;;;;5.80;4.67;;;10.70;99.90;;;;;;5051365;28;20231;-77
2022/09/28 10:23:43;;;;;;;5.83;4.50;;;10.70;99.90;;;;;;5062588;28;20179;-80
2022/09/28 10:26:21;;;;;;;7.47;5.70;;;10.80;99.90;;;;;;5068009;28;20204;-77
2022/09/28 10:28:57;;;;;;;6.77;4.83;;;10.80;99.90;;;;;;5050304;28;20195;-79
2022/09/28 10:31:34;;;;;;;9.23;4.77;;;10.80;99.90;;;;;;5054364;28;20255;-78
2022/09/28 10:34:00;;;;;;;7.97;5.13;;;10.90;99.90;;;;;;5076628;28;20516;-76
2022/09/28 10:36:27;;;;;;;11.73;6.30;;;11.00;99.90;;;;;;5075591;28;20179;-77
2022/09/28 10:38:54;;;;;;;6.13;5.53;;;11.10;99.90;;;;;;5075621;28;20255;-76
2022/09/28 10:41:21;;;;;;;7.20;5.27;;;11.20;99.90;;;;;;5102058;22;20591;-77
2022/09/28 10:44:05;;;;;;;5.27;4.77;;;11.30;99.90;;;;;;5059510;28;20190;-78
2022/09/28 10:46:32;;;;;;;5.30;4.10;;;11.30;99.90;;;;;;5058710;28;20223;-78
2022/09/28 10:49:12;;;;;;;3.53;2.90;;;11.40;99.90;;;;;;5059142;28;20163;-77
2022/09/28 10:51:46;;;;;;;4.03;2.90;;;11.40;99.90;;;;;;5057409;28;20253;-78
2022/09/28 10:54:24;;;;;;;2.50;2.30;;;11.50;99.90;;;;;;5056387;28;20546;-76
2022/09/28 10:56:51;;;;;;;2.30;1.87;;;11.70;99.90;;;;;;5056797;28;20203;-76
2022/09/28 10:59:28;;;;;;;3.13;1.90;;;11.80;99.90;;;;;;5056846;28;20259;-77
2022/09/28 11:02:23;;;;;;;3.57;2.10;;;11.90;99.90;;;;;;5055764;28;20254;-77
2022/09/28 11:04:55;;;;;;;3.07;1.83;;;12.00;99.90;;;;;;5057330;28;20218;-77
2022/09/28 11:07:29;;;;;;;2.73;1.80;;;12.00;99.90;;;;;;5057394;28;20187;-77
2022/09/28 11:09:57;;;;;;;2.40;1.93;;;12.10;99.90;;;;;;5056685;28;20644;-76
2022/09/28 11:12:25;;;;;;;5.60;2.17;;;12.00;99.90;;;;;;5056109;28;20218;-77
2022/09/28 11:15:23;;;;;;;5.50;2.20;;;12.10;99.90;;;;;;5053431;28;20206;-76
2022/09/28 11:17:48;;;;;;;3.70;2.43;;;12.00;99.90;;;;;;5055982;28;20191;-76
2022/09/28 11:20:23;;;;;;;4.17;1.90;;;12.00;99.90;;;;;;5055981;28;20176;-77
2022/09/28 11:22:53;;;;;;;1.97;1.87;;;12.00;99.90;;;;;;5056118;28;20566;-76
2022/09/28 11:25:23;;;;;;;3.43;2.00;;;12.10;99.90;;;;;;5055020;28;20709;-77
2022/09/28 11:27:51;;;;;;;4.03;2.17;;;12.10;99.90;;;;;;5056213;28;20217;-77
2022/09/28 11:30:48;;;;;;;4.57;1.97;;;12.10;99.90;;;;;;5055667;28;20164;-77
2022/09/28 11:33:27;;;;;;;2.00;1.80;;;12.20;99.90;;;;;;5054695;28;20250;-77
2022/09/28 11:36:11;;;;;;;3.50;2.63;;;12.20;99.90;;;;;;5055487;28;20238;-76
2022/09/28 11:38:57;;;;;;;5.23;2.73;;;12.20;99.90;;;;;;5055445;28;20178;-76
2022/09/28 11:41:53;;;;;;;2.20;1.87;;;12.20;99.90;;;;;;5054338;28;20579;-77
2022/09/28 11:44:43;;;;;;;5.47;1.87;;;12.20;99.90;;;;;;5056114;28;20270;-77
2022/09/28 11:47:34;;;;;;;2.37;1.70;;;12.30;99.90;;;;;;5054090;28;20196;-77
2022/09/28 11:50:18;;;;;;;2.67;1.67;;;12.30;99.90;;;;;;5055841;28;20160;-76
2022/09/28 11:52:56;;;;;;;5.50;2.00;;;12.30;99.90;;;;;;5054320;28;20222;-77
2022/09/28 11:55:33;;;;;;;4.07;2.00;;;12.30;99.90;;;;;;5055553;28;20175;-77
2022/09/28 11:58:08;;;;;;;1.90;1.80;;;12.30;99.90;;;;;;5055758;28;20263;-77
2022/09/28 12:00:39;;;;;;;6.20;3.00;;;12.40;99.90;;;;;;5055073;28;20304;-77
2022/09/28 12:03:12;;;;;;;3.43;3.03;;;12.30;99.90;;;;;;5055049;28;20213;-77
2022/09/28 12:05:50;;;;;;;5.73;2.87;;;12.40;99.90;;;;;;5056546;28;20174;-77
2022/09/28 12:08:30;;;;;;;6.03;2.97;;;12.40;99.90;;;;;;5055769;28;20199;-76
2022/09/28 12:10:58;;;;;;;2.97;2.00;;;12.40;99.90;;;;;;5054820;28;20643;-77
2022/09/28 12:13:33;;;;;;;4.30;2.10;;;12.40;99.90;;;;;;5053945;28;20271;-77
2022/09/28 12:16:19;;;;;;;2.97;1.50;;;12.40;99.90;;;;;;5055432;28;20182;-77
2022/09/28 12:19:02;;;;;;;2.50;1.73;;;12.40;99.90;;;;;;5054255;28;20233;-77
2022/09/28 12:21:39;;;;;;;3.27;1.70;;;12.40;99.90;;;;;;5055622;28;20156;-75
2022/09/28 12:24:27;;;;;;;1.60;1.50;;;12.40;99.90;;;;;;5055081;28;20152;-76
2022/09/28 12:27:26;;;;;;;1.93;1.30;;;12.40;99.90;;;;;;5048147;28;20215;-76
2022/09/28 12:29:59;;;;;;;2.63;1.50;;;12.50;99.90;;;;;;5053768;28;20171;-76
2022/09/28 12:32:28;;;;;;;6.87;1.70;;;12.40;99.90;;;;;;5053572;28;20230;-77
2022/09/28 12:34:55;;;;;;;2.20;1.60;;;12.50;99.90;;;;;;5053594;28;20170;-76
2022/09/28 12:37:37;;;;;;;4.17;1.80;;;12.60;99.90;;;;;;5054546;28;20168;-76
2022/09/28 12:40:27;;;;;;;6.13;1.80;;;12.70;99.90;;;;;;5054557;28;20171;-76
2022/09/28 12:43:18;;;;;;;1.50;1.20;;;12.80;99.90;;;;;;5054670;28;20222;-76
2022/09/28 12:45:56;;;;;;;2.73;1.93;;;12.80;99.90;;;;;;5053297;28;20590;-75
2022/09/28 12:48:44;;;;;;;3.40;1.50;;;12.80;99.90;;;;;;5055071;28;20156;-76
2022/09/28 12:51:16;;;;;;;3.67;1.80;;;12.90;99.90;;;;;;5054917;28;20152;-77
2022/09/28 12:54:23;;;;;;;3.30;1.77;;;12.90;99.90;;;;;;5054582;28;20158;-76
2022/09/28 12:57:05;;;;;;;3.90;2.10;;;12.90;99.90;;;;;;5053169;28;20175;-76
2022/09/28 12:59:37;;;;;;;3.13;1.93;;;12.90;99.90;;;;;;5053315;28;20175;-76
2022/09/28 13:02:03;;;;;;;4.03;2.10;;;12.90;99.90;;;;;;5053291;28;20196;-76
2022/09/28 13:05:20;;;;;;;2.77;1.60;;;13.00;99.90;;;;;;5053788;28;20179;-77
2022/09/28 13:08:12;;;;;;;2.57;1.40;;;13.00;99.90;;;;;;5034412;28;20249;-77
2022/09/28 13:10:49;;;;;;;2.70;1.17;;;13.00;99.90;;;;;;5054487;28;20187;-76
2022/09/28 13:13:45;;;;;;;5.10;1.30;;;13.00;99.90;;;;;;5054748;28;20191;-77
2022/09/28 13:16:37;;;;;;;2.37;1.60;;;13.00;99.90;;;;;;5055082;28;20155;-76
2022/09/28 13:19:28;;;;;;;5.47;1.90;;;13.00;99.90;;;;;;5051546;28;20202;-76
2022/09/28 13:22:35;;;;;;;2.17;1.40;;;13.00;99.90;;;;;;5054022;28;20222;-76
2022/09/28 13:25:05;;;;;;;2.13;1.57;;;13.00;99.90;;;;;;5053300;28;20247;-76
2022/09/28 13:27:39;;;;;;;1.30;1.17;;;13.00;99.90;;;;;;5052261;28;20200;-76